Time;durP1;ratioP1;P1;durP2;ratioP2;P2;SDS_P1;SDS_P2;PMS_P1;PMS_P2;Temp;Humidity;BMP_temperature;BMP_pressure;BME280_temperature;BME280_humidity;BME280_pressure;Samples;Min_cycle;Max_cycle;Signal;HPM_P1;HPM_P2
2020/12/26 00:00:37;;;;;;;113.25;20.50;;;;;;;3.42;96.93;100045.72;5032722;28;20036;-67
2020/12/26 00:03:03;;;;;;;95.18;19.52;;;;;;;3.66;96.76;100067.66;5033786;28;20544;-67
2020/12/26 00:05:28;;;;;;;170.90;26.05;;;;;;;3.66;96.68;100065.06;5033485;28;20405;-68
2020/12/26 00:07:54;;;;;;;264.80;28.50;;;;;;;3.41;98.04;100037.09;5033557;28;20389;-67
2020/12/26 00:10:20;;;;;;;156.10;24.15;;;;;;;3.68;97.00;100059.75;5033628;28;20470;-67
2020/12/26 00:12:49;;;;;;;163.10;26.48;;;;;;;3.43;97.79;100055.97;5032485;28;20432;-67
2020/12/26 00:15:15;;;;;;;232.50;27.90;;;;;;;3.25;98.28;100062.19;5033338;28;20205;-67
2020/12/26 00:17:40;;;;;;;422.42;40.97;;;;;;;3.44;98.39;100067.16;5033269;28;20495;-67
2020/12/26 00:20:06;;;;;;;133.57;26.58;;;;;;;3.61;97.80;100080.03;5033031;28;20025;-67
2020/12/26 00:22:35;;;;;;;196.43;25.88;;;;;;;3.24;98.53;100052.72;5033338;28;20017;-67
2020/12/26 00:25:01;;;;;;;216.48;29.85;;;;;;;3.43;98.81;100083.63;5033277;28;20105;-67
2020/12/26 00:27:27;;;;;;;100.82;25.27;;;;;;;3.39;98.25;100058.81;5033174;28;20476;-67
2020/12/26 00:29:53;;;;;;;202.70;28.75;;;;;;;3.52;97.81;100071.00;5033193;28;20499;-67
2020/12/26 00:32:21;;;;;;;264.38;32.40;;;;;;;3.60;98.31;100073.16;5033036;28;20041;-67
2020/12/26 00:34:46;;;;;;;490.20;45.95;;;;;;;3.66;98.55;100077.19;5033236;28;20095;-67
2020/12/26 00:37:16;;;;;;;174.88;25.60;;;;;;;3.57;98.43;100051.78;5032984;28;20029;-67
2020/12/26 00:39:41;;;;;;;435.45;41.22;;;;;;;3.52;96.70;100050.28;5032953;28;20022;-67
2020/12/26 00:42:07;;;;;;;367.40;34.33;;;;;;;3.47;96.84;100051.44;5032868;28;20091;-67
2020/12/26 00:44:32;;;;;;;218.43;30.33;;;;;;;3.69;97.58;100092.56;5033013;28;20492;-67
2020/12/26 00:46:58;;;;;;;260.45;32.70;;;;;;;3.65;97.78;100098.84;5031655;28;20040;-67
2020/12/26 00:49:23;;;;;;;141.73;25.13;;;;;;;3.10;98.11;100073.34;5032567;28;20028;-68
2020/12/26 00:51:49;;;;;;;141.20;23.02;;;;;;;2.82;99.02;100067.06;5032827;28;20036;-69
2020/12/26 00:54:15;;;;;;;234.15;29.85;;;;;;;3.14;99.55;100087.81;5032427;28;20041;-67
2020/12/26 00:56:40;;;;;;;263.42;31.25;;;;;;;2.82;100.00;100060.13;5031993;28;20108;-67
2020/12/26 00:59:05;;;;;;;159.30;23.80;;;;;;;2.86;100.00;100057.38;5032768;28;20029;-67
2020/12/26 01:01:31;;;;;;;285.58;27.58;;;;;;;2.86;99.60;100049.63;5032672;28;20028;-68
2020/12/26 01:03:56;;;;;;;155.43;21.58;;;;;;;2.94;98.30;100075.94;5032462;28;20496;-67
2020/12/26 01:06:22;;;;;;;90.43;17.30;;;;;;;2.91;98.14;100073.53;5032863;28;20552;-67
2020/12/26 01:08:47;;;;;;;113.38;18.83;;;;;;;2.79;97.60;100070.66;5032433;28;20026;-67
2020/12/26 01:11:13;;;;;;;71.63;19.27;;;;;;;2.40;99.64;100083.91;5032551;28;20033;-67
2020/12/26 01:13:38;;;;;;;138.77;20.48;;;;;;;2.34;100.00;100077.31;5032333;28;20026;-67
2020/12/26 01:16:04;;;;;;;94.35;21.17;;;;;;;1.99;100.00;100068.75;5032492;28;20021;-68
2020/12/26 01:18:29;;;;;;;201.93;23.30;;;;;;;2.32;100.00;100086.88;5032590;28;20057;-67
2020/12/26 01:20:57;;;;;;;109.25;22.52;;;;;;;2.18;100.00;100071.22;5031175;28;20088;-67
2020/12/26 01:23:23;;;;;;;78.93;19.15;;;;;;;2.10;100.00;100040.59;5032587;28;20021;-69
2020/12/26 01:25:50;;;;;;;141.43;21.30;;;;;;;2.28;100.00;100048.31;5032185;28;20104;-67
2020/12/26 01:28:16;;;;;;;106.93;21.42;;;;;;;2.46;100.00;100083.59;5031050;28;20396;-67
2020/12/26 01:30:42;;;;;;;107.43;22.10;;;;;;;2.07;100.00;100003.72;5032277;28;20485;-67
2020/12/26 01:33:07;;;;;;;88.95;20.05;;;;;;;2.35;99.79;100031.56;5032285;28;20077;-67
2020/12/26 01:35:33;;;;;;;78.60;18.60;;;;;;;2.60;99.41;100069.97;5032273;28;20048;-68
2020/12/26 01:37:58;;;;;;;64.38;18.45;;;;;;;2.58;99.20;100072.63;5032436;28;20030;-68
2020/12/26 01:40:24;;;;;;;90.97;20.42;;;;;;;2.52;99.02;100078.09;5032231;28;20119;-67
2020/12/26 01:42:49;;;;;;;70.18;19.25;;;;;;;2.62;98.74;100091.41;5032590;28;20032;-67
2020/12/26 01:45:14;;;;;;;81.88;19.55;;;;;;;2.41;99.36;100077.00;5032389;28;20126;-68
2020/12/26 01:47:40;;;;;;;56.15;18.05;;;;;;;2.41;99.40;100072.66;5032089;28;20496;-67
2020/12/26 01:50:06;;;;;;;100.45;21.85;;;;;;;2.36;99.24;100064.28;5032294;28;20484;-67
2020/12/26 01:52:31;;;;;;;118.93;22.58;;;;;;;2.43;98.87;100052.72;5032220;28;20025;-68
2020/12/26 01:54:59;;;;;;;247.88;29.98;;;;;;;2.33;99.07;100023.91;5031848;28;20022;-67
2020/12/26 01:57:34;;;;;;;168.52;28.23;;;;;;;2.64;97.74;100075.81;5030872;28;20060;-67
2020/12/26 02:00:01;;;;;;;242.68;31.23;;;;;;;2.51;97.06;100067.84;5031945;28;20036;-67
2020/12/26 02:02:26;;;;;;;95.07;21.75;;;;;;;2.87;97.13;100098.75;5031890;28;20036;-67
2020/12/26 02:04:51;;;;;;;105.80;21.33;;;;;;;2.84;97.43;100085.97;5032204;28;20021;-67
2020/12/26 02:07:17;;;;;;;77.93;20.33;;;;;;;2.99;98.03;100098.06;5032464;28;20040;-67
2020/12/26 02:09:43;;;;;;;134.55;28.40;;;;;;;2.97;98.23;100089.56;5035715;28;20044;-67
2020/12/26 02:12:09;;;;;;;161.27;25.23;;;;;;;2.60;98.75;100063.03;5034578;28;20033;-67
2020/12/26 02:14:34;;;;;;;66.68;19.85;;;;;;;2.87;98.46;100098.75;5035687;28;20447;-67
2020/12/26 02:17:00;;;;;;;142.45;23.35;;;;;;;2.52;99.28;100072.94;5035457;28;20030;-67
2020/12/26 02:19:26;;;;;;;141.15;26.13;;;;;;;2.55;99.33;100070.19;5035576;28;20025;-67
2020/12/26 02:21:52;;;;;;;173.85;26.58;;;;;;;2.56;99.75;100064.09;5035792;28;20051;-67
2020/12/26 02:24:17;;;;;;;107.45;25.48;;;;;;;2.84;98.89;100098.91;5034304;28;20030;-67
2020/12/26 02:26:43;;;;;;;85.47;22.80;;;;;;;2.92;99.36;100093.31;5035732;28;20439;-67
2020/12/26 02:29:08;;;;;;;124.13;24.60;;;;;;;2.96;99.71;100098.22;5035246;28;20095;-67
2020/12/26 02:31:35;;;;;;;146.52;26.15;;;;;;;2.88;99.24;100096.97;5035272;28;20119;-67
2020/12/26 02:34:01;;;;;;;117.50;26.02;;;;;;;2.88;99.94;100105.56;5034686;28;20029;-67
2020/12/26 02:36:27;;;;;;;126.35;25.73;;;;;;;3.02;99.58;100103.09;5035561;28;20060;-67
2020/12/26 02:38:52;;;;;;;114.05;23.30;;;;;;;2.90;99.76;100069.25;5035322;28;20484;-67
2020/12/26 02:41:18;;;;;;;126.55;23.35;;;;;;;2.83;99.23;100048.03;5035246;28;20396;-67
2020/12/26 02:43:43;;;;;;;127.88;24.77;;;;;;;2.80;100.00;100081.84;5035158;28;20028;-67
2020/12/26 02:46:09;;;;;;;131.18;27.60;;;;;;;2.64;100.00;100101.69;5035461;28;20041;-67
2020/12/26 02:48:34;;;;;;;219.13;29.17;;;;;;;2.56;100.00;100089.97;5035164;28;20037;-67
2020/12/26 02:51:00;;;;;;;137.65;27.35;;;;;;;2.49;100.00;100088.59;5034924;28;20083;-67
2020/12/26 02:53:26;;;;;;;132.90;27.02;;;;;;;2.36;100.00;100072.03;5033655;28;20030;-67
2020/12/26 02:55:52;;;;;;;146.13;27.40;;;;;;;2.63;100.00;100100.81;5035026;28;20037;-67
2020/12/26 02:58:18;;;;;;;163.45;30.23;;;;;;;2.68;100.00;100093.69;5033552;28;20095;-67
2020/12/26 03:00:44;;;;;;;152.15;28.42;;;;;;;2.49;100.00;100044.63;5035127;28;20124;-67
2020/12/26 03:03:10;;;;;;;131.05;27.63;;;;;;;2.72;100.00;100107.28;5033575;28;20477;-67
2020/12/26 03:05:35;;;;;;;117.60;26.90;;;;;;;2.57;100.00;100101.16;5035383;28;20048;-67
2020/12/26 03:08:01;;;;;;;150.50;29.90;;;;;;;2.55;100.00;100103.81;5034666;28;20030;-67
2020/12/26 03:10:27;;;;;;;129.98;28.83;;;;;;;2.21;100.00;100036.63;5034769;28;20465;-67
2020/12/26 03:12:53;;;;;;;143.82;28.67;;;;;;;2.53;100.00;100094.44;5034442;28;20029;-67
2020/12/26 03:15:18;;;;;;;139.68;30.13;;;;;;;2.62;100.00;100111.28;5034299;28;20038;-67
2020/12/26 03:17:44;;;;;;;104.95;27.65;;;;;;;2.64;100.00;100104.28;5034609;28;20079;-67
2020/12/26 03:20:09;;;;;;;112.35;29.52;;;;;;;2.38;100.00;100080.56;5033729;28;20397;-67
2020/12/26 03:22:35;;;;;;;179.93;36.97;;;;;;;2.64;100.00;100117.22;5034478;28;20022;-67
2020/12/26 03:25:01;;;;;;;127.70;27.60;;;;;;;2.57;100.00;100096.81;5034687;28;20025;-67
2020/12/26 03:27:26;;;;;;;139.48;30.77;;;;;;;2.68;100.00;100092.84;5034571;28;20028;-68
2020/12/26 03:29:53;;;;;;;148.63;30.88;;;;;;;2.88;100.00;100141.81;5034064;28;20547;-67
2020/12/26 03:32:19;;;;;;;156.18;30.58;;;;;;;2.66;100.00;100100.66;5034117;28;20136;-67
2020/12/26 03:34:44;;;;;;;109.00;30.05;;;;;;;2.72;100.00;100071.06;5033191;28;20021;-67
2020/12/26 03:37:10;;;;;;;157.07;32.00;;;;;;;2.95;100.00;100101.75;5034368;28;20397;-67
2020/12/26 03:39:36;;;;;;;198.82;34.70;;;;;;;2.75;100.00;100086.44;5032903;28;20404;-67
2020/12/26 03:42:06;;;;;;;137.15;31.50;;;;;;;2.94;100.00;100094.91;5033972;28;20473;-68
2020/12/26 03:44:32;;;;;;;110.10;31.20;;;;;;;2.97;100.00;100115.47;5033095;28;20029;-67
2020/12/26 03:46:58;;;;;;;135.50;34.95;;;;;;;2.73;100.00;100081.31;5033709;28;20044;-67
2020/12/26 03:49:24;;;;;;;154.05;33.75;;;;;;;3.02;100.00;100128.97;5033245;28;20169;-67
2020/12/26 03:51:50;;;;;;;185.23;36.65;;;;;;;3.08;100.00;100117.47;5033724;28;20496;-67
2020/12/26 03:54:16;;;;;;;140.57;32.92;;;;;;;2.82;100.00;100095.53;5033511;28;20025;-67
2020/12/26 03:56:42;;;;;;;98.43;33.67;;;;;;;2.93;100.00;100115.69;5033749;28;20029;-67
2020/12/26 03:59:08;;;;;;;127.25;32.78;;;;;;;2.93;100.00;100119.09;5033589;28;20029;-67
2020/12/26 04:01:33;;;;;;;79.55;30.35;;;;;;;2.96;100.00;100123.28;5033163;28;20378;-67
2020/12/26 04:03:59;;;;;;;106.43;30.17;;;;;;;3.04;100.00;100132.34;5033889;28;20025;-68
2020/12/26 04:06:24;;;;;;;87.40;29.45;;;;;;;3.05;100.00;100135.75;5033752;28;20030;-67
2020/12/26 04:08:49;;;;;;;88.25;29.35;;;;;;;2.94;100.00;100097.50;5033589;28;20032;-67
2020/12/26 04:11:15;;;;;;;100.80;29.58;;;;;;;3.14;100.00;100119.75;5033471;28;20036;-67
2020/12/26 04:13:40;;;;;;;133.43;31.52;;;;;;;3.05;100.00;100118.47;5033829;28;20021;-67
2020/12/26 04:16:10;;;;;;;141.60;31.65;;;;;;;3.08;100.00;100114.88;5033443;28;20025;-68
2020/12/26 04:18:35;;;;;;;120.68;29.95;;;;;;;3.00;100.00;100115.28;5032232;28;20034;-68
2020/12/26 04:21:01;;;;;;;147.20;32.25;;;;;;;3.07;100.00;100127.00;5032858;28;20037;-67
2020/12/26 04:23:26;;;;;;;127.20;31.30;;;;;;;2.88;100.00;100092.63;5033622;28;20021;-67
2020/12/26 04:25:51;;;;;;;123.90;30.50;;;;;;;3.00;100.00;100110.13;5031978;28;20022;-67
2020/12/26 04:28:17;;;;;;;159.57;33.60;;;;;;;2.80;100.00;100085.28;5033642;28;20025;-67
2020/12/26 04:30:42;;;;;;;139.13;30.80;;;;;;;2.91;100.00;100110.59;5031324;28;20407;-68
2020/12/26 04:33:08;;;;;;;81.10;30.20;;;;;;;2.96;100.00;100118.13;5032099;28;20041;-69
2020/12/26 04:35:33;;;;;;;90.68;27.33;;;;;;;2.63;100.00;100076.72;5031968;28;20492;-67
2020/12/26 04:37:58;;;;;;;101.32;28.73;;;;;;;2.57;100.00;100073.53;5031306;28;20468;-67
2020/12/26 04:40:25;;;;;;;108.18;33.22;;;;;;;2.77;100.00;100072.50;5032819;28;20025;-67
2020/12/26 04:42:52;;;;;;;126.03;42.70;;;;;;;2.63;100.00;100095.66;5032202;28;20025;-67
2020/12/26 04:45:18;;;;;;;141.20;39.42;;;;;;;2.80;100.00;100110.31;5029441;28;20033;-68
2020/12/26 04:48:07;;;;;;;191.85;42.78;;;;;;;2.48;100.00;100076.59;5030890;28;20389;-69
2020/12/26 04:50:34;;;;;;;172.20;39.20;;;;;;;2.61;100.00;100113.03;5030612;28;20037;-68
2020/12/26 04:53:04;;;;;;;90.15;33.35;;;;;;;2.68;100.00;100119.56;5029657;28;20036;-68
2020/12/26 04:55:32;;;;;;;129.23;46.35;;;;;;;2.73;100.00;100121.91;5030825;28;20504;-67
2020/12/26 04:58:08;;;;;;;92.53;25.70;;;;;;;2.44;100.00;100089.78;5029660;28;20068;-67
2020/12/26 05:00:35;;;;;;;102.43;27.63;;;;;;;2.44;100.00;100093.19;5031257;28;20084;-67
2020/12/26 05:03:09;;;;;;;101.68;26.30;;;;;;;2.69;100.00;100122.97;5030634;28;20544;-67
2020/12/26 05:05:43;;;;;;;65.25;24.65;;;;;;;2.71;100.00;100128.91;5032117;28;20538;-67
2020/12/26 05:08:11;;;;;;;82.63;25.50;;;;;;;2.79;100.00;100119.00;5030785;28;20120;-68
2020/12/26 05:10:38;;;;;;;87.60;27.95;;;;;;;2.44;100.00;100090.59;5030599;28;20018;-67
2020/12/26 05:13:06;;;;;;;145.43;59.22;;;;;;;2.53;100.00;100117.75;5031723;28;20076;-67
2020/12/26 05:15:31;;;;;;;144.80;46.30;;;;;;;2.71;100.00;100134.09;5031422;28;20021;-67
2020/12/26 05:17:57;;;;;;;127.75;33.95;;;;;;;2.81;100.00;100130.94;5032360;28;20029;-67
2020/12/26 05:20:26;;;;;;;137.05;35.45;;;;;;;2.89;100.00;100135.72;5032166;28;20030;-67
2020/12/26 05:23:11;;;;;;;154.13;49.90;;;;;;;2.44;100.00;100100.94;5032464;28;20030;-67
2020/12/26 05:25:46;;;;;;;115.45;45.88;;;;;;;2.68;100.00;100140.25;5032599;28;20025;-67
2020/12/26 05:28:18;;;;;;;83.38;27.77;;;;;;;2.49;100.00;100104.13;5031133;28;20035;-67
2020/12/26 05:30:46;;;;;;;91.78;30.52;;;;;;;2.55;100.00;100124.50;5032547;28;20465;-67
2020/12/26 05:33:12;;;;;;;82.20;36.05;;;;;;;2.77;100.00;100141.53;5032160;28;20053;-67
2020/12/26 05:35:40;;;;;;;65.70;28.75;;;;;;;2.93;100.00;100150.16;5032001;28;20675;-67
2020/12/26 05:38:26;;;;;;;88.60;36.17;;;;;;;2.86;100.00;100141.06;5032124;28;20622;-67
2020/12/26 05:40:56;;;;;;;57.97;26.45;;;;;;;2.84;100.00;100141.16;5030871;28;20032;-67
2020/12/26 05:43:23;;;;;;;84.22;31.45;;;;;;;2.66;100.00;100105.00;5034868;28;20052;-67
2020/12/26 05:45:50;;;;;;;58.20;21.63;;;;;;;3.05;100.00;100149.53;5036312;28;20038;-67
2020/12/26 05:48:18;;;;;;;29.00;18.13;;;;;;;3.15;99.06;100149.88;5036200;28;20505;-67
2020/12/26 05:50:44;;;;;;;31.48;19.27;;;;;;;3.14;98.51;100137.00;5035133;28;20026;-67
2020/12/26 05:53:15;;;;;;;32.95;20.52;;;;;;;2.50;98.58;100116.16;5036044;28;20030;-67
2020/12/26 05:55:42;;;;;;;38.63;24.10;;;;;;;2.79;99.44;100157.81;5035647;28;20033;-67
2020/12/26 05:58:08;;;;;;;35.33;22.85;;;;;;;2.53;99.30;100122.91;5035596;28;20041;-68
2020/12/26 06:00:42;;;;;;;37.15;24.52;;;;;;;2.38;100.00;100123.69;5035560;28;20021;-68
2020/12/26 06:03:29;;;;;;;45.25;26.80;;;;;;;2.48;100.00;100154.19;5035912;28;20057;-67
2020/12/26 06:05:59;;;;;;;36.20;23.73;;;;;;;2.37;100.00;100117.69;5034277;28;20021;-68
2020/12/26 06:08:26;;;;;;;30.08;20.65;;;;;;;2.77;100.00;100170.03;5035255;28;20053;-67
2020/12/26 06:10:54;;;;;;;23.70;17.10;;;;;;;2.91;99.64;100177.91;5035273;28;20038;-67
2020/12/26 06:13:25;;;;;;;29.60;19.40;;;;;;;2.76;99.61;100126.91;5033619;28;20381;-68
2020/12/26 06:15:55;;;;;;;26.80;18.75;;;;;;;3.01;99.82;100162.72;5033056;28;20548;-67
2020/12/26 06:18:22;;;;;;;47.47;28.63;;;;;;;3.12;100.00;100164.75;5033190;28;20041;-68
2020/12/26 06:20:49;;;;;;;45.35;28.83;;;;;;;3.23;100.00;100159.84;5033334;28;20406;-68
2020/12/26 06:23:22;;;;;;;45.05;30.08;;;;;;;3.26;99.17;100149.31;5033493;28;20078;-68
2020/12/26 06:25:50;;;;;;;63.38;22.30;;;;;;;3.43;98.97;100148.41;5033350;28;20056;-67
2020/12/26 06:28:30;;;;;;;50.30;20.05;;;;;;;3.51;98.52;100139.31;5032058;28;20056;-67
2020/12/26 06:31:03;;;;;;;41.28;24.70;;;;;;;3.29;98.50;100141.38;5033942;28;20033;-67
2020/12/26 06:33:37;;;;;;;34.60;24.75;;;;;;;3.15;98.22;100136.13;5035044;28;20052;-67
2020/12/26 06:36:04;;;;;;;38.58;23.48;;;;;;;3.00;98.45;100111.84;5035336;28;20050;-67
2020/12/26 06:38:30;;;;;;;36.85;25.02;;;;;;;3.12;99.07;100139.69;5035318;28;20026;-67
2020/12/26 06:41:01;;;;;;;72.20;24.33;;;;;;;3.23;99.38;100139.13;5035213;28;20030;-67
2020/12/26 06:43:52;;;;;;;72.55;22.50;;;;;;;3.45;98.30;100139.63;5033944;28;20049;-67
2020/12/26 06:46:17;;;;;;;81.57;20.55;;;;;;;3.58;97.02;100138.94;5035652;28;20032;-67
2020/12/26 06:48:44;;;;;;;108.80;20.85;;;;;;;3.31;97.58;100137.81;5034327;28;20034;-67
2020/12/26 06:51:40;;;;;;;107.47;21.38;;;;;;;3.15;97.93;100115.41;5035166;28;20500;-67
2020/12/26 06:54:12;;;;;;;80.20;22.98;;;;;;;2.83;99.35;100113.59;5034473;28;20032;-67
2020/12/26 06:56:37;;;;;;;45.70;18.10;;;;;;;2.94;100.00;100146.69;5035451;28;20037;-67
2020/12/26 06:59:07;;;;;;;63.30;21.33;;;;;;;2.82;100.00;100111.91;5034974;28;20439;-67
2020/12/26 07:01:34;;;;;;;44.60;17.77;;;;;;;2.76;100.00;100143.28;5034947;28;20029;-67
2020/12/26 07:04:14;;;;;;;61.35;21.08;;;;;;;2.83;100.00;100155.00;5034749;28;20033;-67
2020/12/26 07:06:46;;;;;;;58.05;19.65;;;;;;;2.87;100.00;100149.66;5034124;28;20021;-67
2020/12/26 07:09:13;;;;;;;33.00;18.17;;;;;;;2.88;100.00;100148.75;5034025;28;20029;-67
2020/12/26 07:11:57;;;;;;;43.72;20.90;;;;;;;2.85;100.00;100162.69;5033668;28;20053;-68
2020/12/26 07:14:29;;;;;;;44.42;18.83;;;;;;;2.80;100.00;100133.59;5033871;28;20056;-67
2020/12/26 07:16:56;;;;;;;32.35;18.02;;;;;;;2.81;99.66;100099.88;5033670;28;20562;-67
2020/12/26 07:19:21;;;;;;;30.60;18.42;;;;;;;3.32;99.65;100161.94;5032749;28;20511;-67
2020/12/26 07:22:16;;;;;;;25.10;16.13;;;;;;;3.45;98.88;100181.09;5034626;28;20037;-67
2020/12/26 07:24:50;;;;;;;30.38;17.10;;;;;;;3.45;98.42;100164.72;5032833;28;20041;-67
2020/12/26 07:27:23;;;;;;;36.78;21.15;;;;;;;3.39;98.38;100154.69;5031113;28;20029;-67
2020/12/26 07:29:57;;;;;;;35.67;21.58;;;;;;;3.65;98.04;100190.38;5033619;28;20032;-67
2020/12/26 07:32:39;;;;;;;33.45;22.73;;;;;;;3.47;98.76;100161.09;5030779;28;20049;-67
2020/12/26 07:35:11;;;;;;;25.27;17.63;;;;;;;3.73;97.82;100180.41;5031692;28;20029;-68
2020/12/26 07:37:40;;;;;;;33.03;20.92;;;;;;;3.59;97.60;100157.03;5033397;28;20032;-67
2020/12/26 07:40:09;;;;;;;34.67;21.15;;;;;;;3.71;97.48;100147.72;5033984;28;20455;-69
2020/12/26 07:42:35;;;;;;;36.30;23.08;;;;;;;3.83;98.54;100174.75;5033665;28;20036;-67
2020/12/26 07:45:19;;;;;;;34.97;22.52;;;;;;;3.94;98.33;100175.81;5033781;28;20055;-67
2020/12/26 07:47:52;;;;;;;37.15;23.42;;;;;;;3.86;97.97;100152.06;5033586;28;20095;-67
2020/12/26 07:50:20;;;;;;;33.20;21.98;;;;;;;3.94;97.66;100157.66;5033542;28;20025;-67
2020/12/26 07:52:47;;;;;;;24.92;17.15;;;;;;;4.00;98.59;100183.25;5033412;28;20473;-67
2020/12/26 07:55:12;;;;;;;36.20;24.13;;;;;;;3.67;97.70;100134.09;5033458;28;20030;-67
2020/12/26 07:57:38;;;;;;;54.80;32.53;;;;;;;4.08;97.99;100192.34;5033822;28;20099;-67
2020/12/26 08:00:04;;;;;;;32.97;22.23;;;;;;;4.18;98.60;100189.16;5033806;28;20179;-67
2020/12/26 08:02:30;;;;;;;24.48;17.05;;;;;;;4.08;98.33;100156.03;5033721;28;20394;-67
2020/12/26 08:04:56;;;;;;;33.15;21.90;;;;;;;4.36;97.54;100183.84;5033620;28;20087;-67
2020/12/26 08:07:21;;;;;;;23.85;15.68;;;;;;;4.56;97.04;100193.94;5033829;28;20029;-67
2020/12/26 08:09:54;;;;;;;22.90;15.82;;;;;;;4.58;96.01;100194.66;5032371;28;20048;-67
2020/12/26 08:12:21;;;;;;;26.67;19.27;;;;;;;4.66;96.96;100202.00;5033385;28;20038;-67
2020/12/26 08:15:00;;;;;;;22.98;17.25;;;;;;;4.64;95.69;100201.25;5033462;28;20034;-67
2020/12/26 08:17:27;;;;;;;29.50;19.60;;;;;;;4.37;96.45;100196.72;5033683;28;20110;-67
2020/12/26 08:19:59;;;;;;;31.58;20.80;;;;;;;4.42;97.34;100186.94;5033478;28;20033;-67
2020/12/26 08:22:26;;;;;;;31.15;20.15;;;;;;;4.39;96.28;100165.53;5033277;28;20552;-67
2020/12/26 08:25:08;;;;;;;37.88;21.35;;;;;;;4.42;96.99;100184.34;5033124;28;20087;-66
2020/12/26 08:27:34;;;;;;;43.30;23.10;;;;;;;4.21;96.91;100162.19;5033220;28;20025;-67
2020/12/26 08:30:05;;;;;;;37.83;23.30;;;;;;;4.56;96.91;100203.47;5033271;28;20166;-67
2020/12/26 08:32:38;;;;;;;47.05;24.88;;;;;;;4.50;96.67;100187.31;5032164;28;20477;-68
2020/12/26 08:35:08;;;;;;;44.08;26.65;;;;;;;4.20;97.30;100165.72;5033167;28;20025;-67
2020/12/26 08:37:38;;;;;;;43.70;25.73;;;;;;;4.21;97.45;100149.22;5033088;28;20033;-67
2020/12/26 08:40:09;;;;;;;35.70;23.73;;;;;;;4.61;98.27;100191.88;5033011;28;20033;-67
2020/12/26 08:42:36;;;;;;;39.88;24.67;;;;;;;4.57;96.72;100174.00;5032530;28;20141;-67
2020/12/26 08:45:23;;;;;;;31.55;20.30;;;;;;;4.48;96.33;100181.38;5015497;28;20052;-68
2020/12/26 08:47:49;;;;;;;28.63;21.17;;;;;;;4.55;96.52;100191.41;5021526;28;20025;-68
2020/12/26 08:50:15;;;;;;;29.70;20.30;;;;;;;4.66;96.46;100189.03;5019756;28;20104;-71
2020/12/26 08:52:47;;;;;;;31.73;21.52;;;;;;;4.53;96.15;100156.94;5022730;28;20112;-69
2020/12/26 08:55:12;;;;;;;28.30;19.48;;;;;;;4.76;95.06;100182.38;5020344;28;20018;-70
2020/12/26 08:57:38;;;;;;;26.05;20.05;;;;;;;4.67;95.91;100149.16;5013523;28;20045;-73
2020/12/26 09:00:22;;;;;;;26.80;19.42;;;;;;;5.05;95.91;100193.59;5015809;28;20076;-69
2020/12/26 09:02:52;;;;;;;25.90;17.70;;;;;;;4.87;94.23;100159.19;5025838;28;20116;-69
2020/12/26 09:05:28;;;;;;;25.45;18.50;;;;;;;4.98;94.48;100172.34;5016839;28;20064;-69
2020/12/26 09:08:04;;;;;;;27.20;18.35;;;;;;;5.11;95.19;100182.03;5025410;28;20047;-70
2020/12/26 09:10:30;;;;;;;23.50;17.38;;;;;;;5.26;95.03;100183.66;5025410;28;20053;-66
2020/12/26 09:13:01;;;;;;;29.08;21.65;;;;;;;5.21;95.23;100154.56;5021259;28;20061;-68
2020/12/26 09:15:26;;;;;;;25.10;17.35;;;;;;;5.18;92.87;100134.78;5023819;28;20022;-64
2020/12/26 09:17:52;;;;;;;21.75;16.58;;;;;;;5.34;91.19;100175.44;5020481;28;20120;-68
2020/12/26 09:20:17;;;;;;;24.00;18.30;;;;;;;5.33;92.32;100177.19;5012337;28;20033;-67
2020/12/26 09:22:43;;;;;;;25.40;19.50;;;;;;;5.28;92.48;100137.66;5019943;28;20105;-68
2020/12/26 09:25:25;;;;;;;25.75;19.45;;;;;;;5.56;92.00;100159.31;5021343;28;20095;-68
2020/12/26 09:28:04;;;;;;;25.70;20.55;;;;;;;5.51;92.23;100135.41;5021216;28;20026;-68
2020/12/26 09:30:29;;;;;;;23.38;19.13;;;;;;;5.45;92.55;100147.81;5017314;28;20034;-68
2020/12/26 09:32:56;;;;;;;26.60;20.48;;;;;;;5.53;92.23;100151.72;5024162;28;20542;-67
2020/12/26 09:35:21;;;;;;;31.52;22.98;;;;;;;5.45;92.70;100142.63;5021681;28;20493;-68
2020/12/26 09:37:51;;;;;;;30.23;24.58;;;;;;;5.26;93.20;100118.72;5025044;28;20111;-69
2020/12/26 09:40:17;;;;;;;30.38;23.30;;;;;;;5.20;92.89;100126.91;5019976;28;20502;-68
2020/12/26 09:42:42;;;;;;;31.42;23.75;;;;;;;5.55;93.46;100152.47;5027009;28;20057;-68
2020/12/26 09:45:07;;;;;;;32.00;25.48;;;;;;;5.58;92.37;100116.69;5024369;28;20056;-70
2020/12/26 09:47:33;;;;;;;36.83;27.85;;;;;;;5.74;92.73;100141.72;5017851;28;20137;-68
2020/12/26 09:49:58;;;;;;;34.97;28.27;;;;;;;5.67;92.88;100117.91;5025131;28;20051;-68
2020/12/26 09:52:24;;;;;;;41.80;30.90;;;;;;;5.98;93.29;100157.56;5017963;28;20033;-68
2020/12/26 09:54:49;;;;;;;45.97;33.85;;;;;;;5.78;93.16;100125.84;5024916;28;20068;-69
2020/12/26 09:57:15;;;;;;;108.70;78.72;;;;;;;6.12;93.42;100157.50;5023966;28;20068;-69
2020/12/26 09:59:40;;;;;;;46.80;34.25;;;;;;;6.20;91.69;100142.22;5024966;28;20058;-70
2020/12/26 10:02:06;;;;;;;53.72;41.95;;;;;;;6.14;91.66;100111.38;5020197;28;20061;-70
2020/12/26 10:04:31;;;;;;;44.97;34.58;;;;;;;6.33;92.14;100150.88;5021908;28;20472;-69
2020/12/26 10:06:56;;;;;;;39.45;31.45;;;;;;;6.27;92.49;100134.84;5020994;28;20476;-69
2020/12/26 10:09:22;;;;;;;45.80;32.10;;;;;;;6.19;92.56;100137.13;5020119;28;20506;-68
2020/12/26 10:11:47;;;;;;;39.90;30.70;;;;;;;6.05;92.73;100140.63;5019047;28;20408;-69
2020/12/26 10:14:13;;;;;;;38.28;29.42;;;;;;;6.17;93.22;100139.81;5018839;28;20031;-68
2020/12/26 10:16:38;;;;;;;39.78;29.35;;;;;;;6.24;93.28;100122.84;5018617;28;20034;-69
2020/12/26 10:19:05;;;;;;;43.72;36.08;;;;;;;6.37;93.53;100130.69;5020812;28;20029;-68
2020/12/26 10:21:31;;;;;;;46.70;34.50;;;;;;;6.31;94.25;100134.56;5021773;28;20535;-69
2020/12/26 10:23:56;;;;;;;42.65;32.33;;;;;;;6.10;94.23;100113.34;5020323;28;20025;-69
2020/12/26 10:26:22;;;;;;;41.78;31.38;;;;;;;6.31;93.92;100126.75;5016300;28;20029;-69
2020/12/26 10:28:47;;;;;;;38.40;29.67;;;;;;;6.31;94.17;100131.94;5025078;28;20022;-70
2020/12/26 10:31:12;;;;;;;46.90;32.22;;;;;;;6.28;93.88;100102.69;5022013;28;20017;-69
2020/12/26 10:33:38;;;;;;;34.80;27.05;;;;;;;6.67;92.82;100126.97;5025143;28;20050;-71
2020/12/26 10:36:03;;;;;;;138.27;80.47;;;;;;;6.77;91.91;100128.84;5024277;28;20079;-71
2020/12/26 10:38:29;;;;;;;68.13;46.92;;;;;;;6.60;93.85;100101.34;5028475;28;20463;-70
2020/12/26 10:40:54;;;;;;;62.50;45.42;;;;;;;6.88;93.49;100143.72;5025717;28;20018;-69
2020/12/26 10:43:20;;;;;;;57.03;39.65;;;;;;;6.65;92.18;100098.44;5028032;28;20064;-70
2020/12/26 10:45:45;;;;;;;54.10;39.05;;;;;;;6.77;92.66;100109.78;5028703;28;20140;-69
2020/12/26 10:48:11;;;;;;;60.30;43.17;;;;;;;7.00;92.64;100116.84;5024041;28;20117;-68
2020/12/26 10:50:37;;;;;;;50.33;35.58;;;;;;;6.86;90.94;100081.31;5020803;28;20088;-70
2020/12/26 10:53:02;;;;;;;50.08;35.55;;;;;;;6.91;90.69;100075.78;5019952;28;20465;-68
2020/12/26 10:55:27;;;;;;;47.60;33.22;;;;;;;7.09;90.48;100104.97;5020998;28;20467;-68
2020/12/26 10:57:53;;;;;;;53.55;37.83;;;;;;;7.19;90.72;100113.81;5022599;28;20034;-68
2020/12/26 11:00:19;;;;;;;55.00;38.15;;;;;;;7.08;91.67;100100.66;5020941;28;20041;-68
2020/12/26 11:02:45;;;;;;;57.88;38.80;;;;;;;6.89;91.17;100066.44;5025263;28;20060;-68
2020/12/26 11:05:10;;;;;;;61.35;41.45;;;;;;;7.17;91.90;100102.63;5027855;28;20021;-70
2020/12/26 11:07:36;;;;;;;61.10;43.30;;;;;;;7.19;91.38;100115.53;5019379;28;20040;-70
2020/12/26 11:10:02;;;;;;;49.45;37.53;;;;;;;7.24;91.55;100106.47;5020976;28;20049;-68
2020/12/26 11:12:27;;;;;;;55.47;39.95;;;;;;;7.21;91.00;100091.03;5025864;28;20029;-67
2020/12/26 11:14:53;;;;;;;59.97;41.50;;;;;;;7.17;91.05;100109.63;5027836;28;20033;-68